sensor_id;sensor_type;location;lat;lon;timestamp;pressure;altitude;pressure_sealevel;temperature;humidity
57668;BME280;43499;52.366;12.912;2023-04-01T00:00:00;99347.06;;;8.85;100.00
57668;BME280;43499;52.366;12.912;2023-04-01T00:01:02;99342.50;;;8.82;100.00
57668;BME280;43499;52.366;12.912;2023-04-01T00:02:05;99341.09;;;8.87;100.00
57668;BME280;43499;52.366;12.912;2023-04-01T00:03:06;99338.84;;;8.80;100.00
57668;BME280;43499;52.366;12.912;2023-04-01T00:04:07;99348.16;;;8.88;100.00
57668;BME280;43499;52.366;12.912;2023-04-01T00:05:09;99344.59;;;8.88;100.00
57668;BME280;43499;52.366;12.912;2023-04-01T00:06:16;99343.41;;;8.83;100.00
57668;BME280;43499;52.366;12.912;2023-04-01T00:07:17;99355.81;;;8.85;100.00
57668;BME280;43499;52.366;12.912;2023-04-01T00:08:18;99344.31;;;8.83;100.00
57668;BME280;43499;52.366;12.912;2023-04-01T00:09:19;99339.69;;;8.79;100.00
57668;BME280;43499;52.366;12.912;2023-04-01T00:10:20;99340.50;;;8.78;100.00
57668;BME280;43499;52.366;12.912;2023-04-01T00:11:23;99338.06;;;8.81;100.00
57668;BME280;43499;52.366;12.912;2023-04-01T00:12:24;99338.69;;;8.77;100.00
57668;BME280;43499;52.366;12.912;2023-04-01T00:13:26;99346.84;;;8.82;100.00
57668;BME280;43499;52.366;12.912;2023-04-01T00:14:27;99335.13;;;8.76;100.00
57668;BME280;43499;52.366;12.912;2023-04-01T00:15:28;99328.00;;;8.74;100.00
57668;BME280;43499;52.366;12.912;2023-04-01T00:16:29;99338.84;;;8.80;100.00
57668;BME280;43499;52.366;12.912;2023-04-01T00:17:30;99350.25;;;8.80;100.00
57668;BME280;43499;52.366;12.912;2023-04-01T00:18:31;99334.03;;;8.73;100.00
57668;BME280;43499;52.366;12.912;2023-04-01T00:19:32;99346.63;;;8.78;100.00
57668;BME280;43499;52.366;12.912;2023-04-01T00:20:33;99343.78;;;8.75;100.00
57668;BME280;43499;52.366;12.912;2023-04-01T00:21:34;99341.38;;;8.78;100.00
57668;BME280;43499;52.366;12.912;2023-04-01T00:22:35;99350.47;;;8.84;100.00
57668;BME280;43499;52.366;12.912;2023-04-01T00:23:36;99353.91;;;8.83;100.00
57668;BME280;43499;52.366;12.912;2023-04-01T00:24:38;99334.25;;;8.76;100.00
57668;BME280;43499;52.366;12.912;2023-04-01T00:25:39;99340.09;;;8.85;100.00
57668;BME280;43499;52.366;12.912;2023-04-01T00:26:40;99342.78;;;8.87;100.00
57668;BME280;43499;52.366;12.912;2023-04-01T00:27:43;99346.34;;;8.87;100.00
57668;BME280;43499;52.366;12.912;2023-04-01T00:28:44;99336.34;;;8.82;100.00
57668;BME280;43499;52.366;12.912;2023-04-01T00:29:45;99350.84;;;8.90;100.00
57668;BME280;43499;52.366;12.912;2023-04-01T00:30:47;99348.75;;;8.84;100.00
57668;BME280;43499;52.366;12.912;2023-04-01T00:31:48;99347.66;;;8.80;100.00
57668;BME280;43499;52.366;12.912;2023-04-01T00:32:53;99350.25;;;8.80;100.00
57668;BME280;43499;52.366;12.912;2023-04-01T00:33:54;99347.44;;;8.77;100.00
57668;BME280;43499;52.366;12.912;2023-04-01T00:34:55;99345.91;;;8.81;100.00
57668;BME280;43499;52.366;12.912;2023-04-01T00:36:05;99342.41;;;8.80;100.00
57668;BME280;43499;52.366;12.912;2023-04-01T00:37:07;99350.06;;;8.77;100.00
57668;BME280;43499;52.366;12.912;2023-04-01T00:38:08;99355.41;;;8.79;100.00
57668;BME280;43499;52.366;12.912;2023-04-01T00:39:11;99337.16;;;8.67;100.00
57668;BME280;43499;52.366;12.912;2023-04-01T00:40:34;99354.28;;;8.75;100.00
57668;BME280;43499;52.366;12.912;2023-04-01T00:41:35;99350.06;;;8.77;100.00
57668;BME280;43499;52.366;12.912;2023-04-01T00:42:37;99355.06;;;8.74;100.00
57668;BME280;43499;52.366;12.912;2023-04-01T00:43:38;99343.31;;;8.68;100.00
57668;BME280;43499;52.366;12.912;2023-04-01T00:44:39;99350.75;;;8.75;100.00
57668;BME280;43499;52.366;12.912;2023-04-01T00:45:42;99354.50;;;8.78;100.00
57668;BME280;43499;52.366;12.912;2023-04-01T00:46:43;99353.47;;;8.76;100.00
57668;BME280;43499;52.366;12.912;2023-04-01T00:47:46;99347.66;;;8.80;100.00
57668;BME280;43499;52.366;12.912;2023-04-01T00:48:51;99327.69;;;8.69;100.00
57668;BME280;43499;52.366;12.912;2023-04-01T00:49:54;99351.88;;;8.78;100.00
57668;BME280;43499;52.366;12.912;2023-04-01T00:51:00;99358.34;;;8.84;100.00
57668;BME280;43499;52.366;12.912;2023-04-01T00:52:04;99341.81;;;8.71;100.00
57668;BME280;43499;52.366;12.912;2023-04-01T00:53:06;99357.19;;;8.80;100.00
57668;BME280;43499;52.366;12.912;2023-04-01T00:54:08;99351.66;;;8.75;100.00
57668;BME280;43499;52.366;12.912;2023-04-01T00:55:12;99361.53;;;8.79;100.00
57668;BME280;43499;52.366;12.912;2023-04-01T00:56:21;99355.50;;;8.80;100.00
57668;BME280;43499;52.366;12.912;2023-04-01T00:57:34;99354.69;;;8.82;100.00
57668;BME280;43499;52.366;12.912;2023-04-01T00:58:41;99352.88;;;8.80;100.00
57668;BME280;43499;52.366;12.912;2023-04-01T00:59:45;99354.69;;;8.82;100.00
57668;BME280;43499;52.366;12.912;2023-04-01T01:00:48;99348.94;;;8.74;100.00
57668;BME280;43499;52.366;12.912;2023-04-01T01:01:51;99358.84;;;8.78;100.00
57668;BME280;43499;52.366;12.912;2023-04-01T01:02:52;99352.88;;;8.80;100.00
57668;BME280;43499;52.366;12.912;2023-04-01T01:03:53;99354.28;;;8.75;100.00
57668;BME280;43499;52.366;12.912;2023-04-01T01:04:54;99347.22;;;8.74;100.00
57668;BME280;43499;52.366;12.912;2023-04-01T01:06:20;99350.19;;;8.79;100.00
57668;BME280;43499;52.366;12.912;2023-04-01T01:07:45;99353.59;;;8.78;100.00
57668;BME280;43499;52.366;12.912;2023-04-01T01:09:02;99357.81;;;8.76;100.00
57668;BME280;43499;52.366;12.912;2023-04-01T01:10:16;99333.44;;;8.63;100.00
57668;BME280;43499;52.366;12.912;2023-04-01T01:11:24;99352.59;;;8.76;100.00
57668;BME280;43499;52.366;12.912;2023-04-01T01:13:10;99360.31;;;8.74;100.00
57668;BME280;43499;52.366;12.912;2023-04-01T01:15:49;99357.03;;;8.77;100.00
57668;BME280;43499;52.366;12.912;2023-04-01T01:17:06;99361.34;;;8.76;100.00
57668;BME280;43499;52.366;12.912;2023-04-01T01:18:34;99357.81;;;8.76;100.00
57668;BME280;43499;52.366;12.912;2023-04-01T01:22:22;99342.31;;;8.66;100.00
57668;BME280;43499;52.366;12.912;2023-04-01T01:25:10;99345.81;;;8.66;100.00
57668;BME280;43499;52.366;12.912;2023-04-01T01:28:22;99355.00;;;8.73;100.00
57668;BME280;43499;52.366;12.912;2023-04-01T01:33:36;99354.09;;;8.72;100.00
57668;BME280;43499;52.366;12.912;2023-04-01T01:34:49;99353.28;;;8.73;100.00
57668;BME280;43499;52.366;12.912;2023-04-01T01:35:55;99355.28;;;8.77;100.00
57668;BME280;43499;52.366;12.912;2023-04-01T01:37:01;99359.72;;;8.78;100.00
57668;BME280;43499;52.366;12.912;2023-04-01T01:38:11;99363.06;;;8.76;100.00
57668;BME280;43499;52.366;12.912;2023-04-01T01:39:16;99361.34;;;8.76;100.00
57668;BME280;43499;52.366;12.912;2023-04-01T01:40:18;99351.78;;;8.77;100.00
57668;BME280;43499;52.366;12.912;2023-04-01T01:41:20;99365.56;;;8.74;100.00
57668;BME280;43499;52.366;12.912;2023-04-01T01:42:26;99352.47;;;8.74;100.00
57668;BME280;43499;52.366;12.912;2023-04-01T01:43:32;99357.09;;;8.78;100.00
57668;BME280;43499;52.366;12.912;2023-04-01T01:44:35;99361.53;;;8.79;100.00
57668;BME280;43499;52.366;12.912;2023-04-01T01:45:42;99359.63;;;8.77;100.00
57668;BME280;43499;52.366;12.912;2023-04-01T01:46:45;99356.31;;;8.79;100.00
57668;BME280;43499;52.366;12.912;2023-04-01T01:47:47;99356.00;;;8.75;100.00
57668;BME280;43499;52.366;12.912;2023-04-01T01:48:51;99356.31;;;8.79;100.00
57668;BME280;43499;52.366;12.912;2023-04-01T01:49:54;99347.66;;;8.80;100.00
57668;BME280;43499;52.366;12.912;2023-04-01T01:50:56;99359.34;;;8.86;100.00
57668;BME280;43499;52.366;12.912;2023-04-01T01:51:57;99354.78;;;8.83;100.00
57668;BME280;43499;52.366;12.912;2023-04-01T01:53:06;99353.38;;;8.75;100.00
57668;BME280;43499;52.366;12.912;2023-04-01T01:54:12;99345.63;;;8.76;100.00
57668;BME280;43499;52.366;12.912;2023-04-01T01:55:29;99354.50;;;8.78;100.00
57668;BME280;43499;52.366;12.912;2023-04-01T01:56:32;99356.09;;;8.76;100.00
57668;BME280;43499;52.366;12.912;2023-04-01T01:57:36;99363.16;;;8.77;100.00
57668;BME280;43499;52.366;12.912;2023-04-01T01:58:46;99365.06;;;8.80;100.00
57668;BME280;43499;52.366;12.912;2023-04-01T01:59:52;99355.06;;;8.74;100.00
57668;BME280;43499;52.366;12.912;2023-04-01T02:01:00;99363.28;;;8.79;100.00
57668;BME280;43499;52.366;12.912;2023-04-01T02:02:03;99361.97;;;8.72;100.00
57668;BME280;43499;52.366;12.912;2023-04-01T02:03:08;99352.78;;;8.66;100.00
57668;BME280;43499;52.366;12.912;2023-04-01T02:04:12;99344.81;;;8.64;100.00
57668;BME280;43499;52.366;12.912;2023-04-01T02:05:23;99360.44;;;8.76;100.00
57668;BME280;43499;52.366;12.912;2023-04-01T02:06:29;99351.06;;;8.66;100.00
57668;BME280;43499;52.366;12.912;2023-04-01T02:07:33;99367.50;;;8.77;100.00
57668;BME280;43499;52.366;12.912;2023-04-01T02:08:41;99357.53;;;8.71;100.00
57668;BME280;43499;52.366;12.912;2023-04-01T02:09:43;99357.41;;;8.70;100.00
57668;BME280;43499;52.366;12.912;2023-04-01T02:10:55;99365.06;;;8.80;100.00
57668;BME280;43499;52.366;12.912;2023-04-01T02:12:00;99370.28;;;8.80;100.00
57668;BME280;43499;52.366;12.912;2023-04-01T02:13:15;99364.97;;;8.78;100.00
57668;BME280;43499;52.366;12.912;2023-04-01T02:14:27;99366.19;;;8.84;100.00
57668;BME280;43499;52.366;12.912;2023-04-01T02:15:31;99369.63;;;8.83;100.00
57668;BME280;43499;52.366;12.912;2023-04-01T02:16:43;99359.63;;;8.77;100.00
57668;BME280;43499;52.366;12.912;2023-04-01T02:17:46;99374.16;;;8.85;100.00
57668;BME280;43499;52.366;12.912;2023-04-01T02:18:50;99371.63;;;8.87;100.00
57668;BME280;43499;52.366;12.912;2023-04-01T02:20:00;99374.16;;;8.85;100.00
57668;BME280;43499;52.366;12.912;2023-04-01T02:21:03;99356.22;;;8.78;100.00
57668;BME280;43499;52.366;12.912;2023-04-01T02:22:11;99368.91;;;8.85;100.00
57668;BME280;43499;52.366;12.912;2023-04-01T02:23:14;99371.53;;;8.85;100.00
57668;BME280;43499;52.366;12.912;2023-04-01T02:24:15;99362.56;;;8.82;100.00
57668;BME280;43499;52.366;12.912;2023-04-01T02:25:23;99369.41;;;8.93;100.00
57668;BME280;43499;52.366;12.912;2023-04-01T02:26:26;99362.16;;;8.89;100.00
57668;BME280;43499;52.366;12.912;2023-04-01T02:27:28;99373.63;;;8.91;100.00
57668;BME280;43499;52.366;12.912;2023-04-01T02:28:30;99368.09;;;8.86;100.00
57668;BME280;43499;52.366;12.912;2023-04-01T02:29:32;99365.56;;;8.88;100.00
57668;BME280;43499;52.366;12.912;2023-04-01T02:30:35;99375.53;;;8.93;100.00
57668;BME280;43499;52.366;12.912;2023-04-01T02:31:37;99378.28;;;8.95;100.00
57668;BME280;43499;52.366;12.912;2023-04-01T02:32:39;99382.59;;;8.94;100.00
57668;BME280;43499;52.366;12.912;2023-04-01T02:33:40;99372.84;;;8.92;100.00
57668;BME280;43499;52.366;12.912;2023-04-01T02:34:42;99382.72;;;8.96;100.00
57668;BME280;43499;52.366;12.912;2023-04-01T02:35:43;99370.22;;;8.92;100.00
57668;BME280;43499;52.366;12.912;2023-04-01T02:36:45;99384.53;;;8.97;100.00
57668;BME280;43499;52.366;12.912;2023-04-01T02:37:49;99379.38;;;8.99;100.00
57668;BME280;43499;52.366;12.912;2023-04-01T02:38:51;99382.91;;;8.99;100.00
57668;BME280;43499;52.366;12.912;2023-04-01T02:39:52;99382.91;;;8.99;100.00
57668;BME280;43499;52.366;12.912;2023-04-01T02:40:59;99383.53;;;8.95;100.00
57668;BME280;43499;52.366;12.912;2023-04-01T02:42:01;99377.28;;;8.93;100.00
57668;BME280;43499;52.366;12.912;2023-04-01T02:43:03;99383.53;;;8.95;100.00
57668;BME280;43499;52.366;12.912;2023-04-01T02:44:04;99383.53;;;8.95;100.00
57668;BME280;43499;52.366;12.912;2023-04-01T02:45:06;99386.25;;;8.97;100.00
57668;BME280;43499;52.366;12.912;2023-04-01T02:46:07;99381.59;;;8.92;100.00
57668;BME280;43499;52.366;12.912;2023-04-01T02:47:08;99382.72;;;8.96;100.00
57668;BME280;43499;52.366;12.912;2023-04-01T02:48:10;99375.53;;;8.93;100.00
57668;BME280;43499;52.366;12.912;2023-04-01T02:49:11;99386.31;;;8.98;100.00
57668;BME280;43499;52.366;12.912;2023-04-01T02:50:12;99386.31;;;8.98;100.00
57668;BME280;43499;52.366;12.912;2023-04-01T02:51:13;99380.69;;;8.92;100.00
57668;BME280;43499;52.366;12.912;2023-04-01T02:52:14;99392.28;;;8.95;100.00
57668;BME280;43499;52.366;12.912;2023-04-01T02:53:15;99376.16;;;8.89;100.00
57668;BME280;43499;52.366;12.912;2023-04-01T02:54:17;99393.22;;;8.96;100.00
57668;BME280;43499;52.366;12.912;2023-04-01T02:55:18;99392.28;;;8.95;100.00
57668;BME280;43499;52.366;12.912;2023-04-01T02:56:19;99389.56;;;8.94;100.00
57668;BME280;43499;52.366;12.912;2023-04-01T02:57:20;99398.44;;;8.96;100.00
57668;BME280;43499;52.366;12.912;2023-04-01T02:58:21;99391.09;;;8.90;100.00
57668;BME280;43499;52.366;12.912;2023-04-01T02:59:22;99387.47;;;8.88;100.00
57668;BME280;43499;52.366;12.912;2023-04-01T03:00:24;99395.72;;;8.94;100.00
57668;BME280;43499;52.366;12.912;2023-04-01T03:01:26;99400.84;;;8.93;100.00
57668;BME280;43499;52.366;12.912;2023-04-01T03:02:27;99392.56;;;8.87;100.00
57668;BME280;43499;52.366;12.912;2023-04-01T03:03:28;99396.22;;;8.89;100.00
57668;BME280;43499;52.366;12.912;2023-04-01T03:04:29;99399.75;;;8.89;100.00
57668;BME280;43499;52.366;12.912;2023-04-01T03:05:30;99399.53;;;8.86;100.00
57668;BME280;43499;52.366;12.912;2023-04-01T03:06:31;99391.75;;;8.74;100.00
57668;BME280;43499;52.366;12.912;2023-04-01T03:07:33;99399.94;;;8.79;100.00
57668;BME280;43499;52.366;12.912;2023-04-01T03:08:34;99390.97;;;8.75;100.00
57668;BME280;43499;52.366;12.912;2023-04-01T03:09:36;99393.28;;;8.71;100.00
57668;BME280;43499;52.366;12.912;2023-04-01T03:10:37;99378.97;;;8.66;100.00
57668;BME280;43499;52.366;12.912;2023-04-01T03:11:38;99386.44;;;8.73;100.00
57668;BME280;43499;52.366;12.912;2023-04-01T03:12:41;99383.72;;;8.71;100.00
57668;BME280;43499;52.366;12.912;2023-04-01T03:13:42;99395.50;;;8.78;100.00
57668;BME280;43499;52.366;12.912;2023-04-01T03:14:44;99387.84;;;8.68;100.00
57668;BME280;43499;52.366;12.912;2023-04-01T03:15:45;99385.72;;;8.62;100.00
57668;BME280;43499;52.366;12.912;2023-04-01T03:16:46;99402.06;;;8.71;100.00
57668;BME280;43499;52.366;12.912;2023-04-01T03:17:47;99405.97;;;8.64;100.00
57668;BME280;43499;52.366;12.912;2023-04-01T03:18:48;99403.22;;;8.63;100.00
57668;BME280;43499;52.366;12.912;2023-04-01T03:19:52;99393.38;;;8.59;100.00
57668;BME280;43499;52.366;12.912;2023-04-01T03:20:53;99394.97;;;8.57;100.00
57668;BME280;43499;52.366;12.912;2023-04-01T03:21:54;99409.41;;;8.63;100.00
57668;BME280;43499;52.366;12.912;2023-04-01T03:22:55;99399.41;;;8.58;100.00
57668;BME280;43499;52.366;12.912;2023-04-01T03:23:56;99401.44;;;8.62;100.00
57668;BME280;43499;52.366;12.912;2023-04-01T03:24:57;99394.97;;;8.57;100.00
57668;BME280;43499;52.366;12.912;2023-04-01T03:25:58;99398.91;;;8.63;100.00
57668;BME280;43499;52.366;12.912;2023-04-01T03:26:59;99398.81;;;8.62;100.00
57668;BME280;43499;52.366;12.912;2023-04-01T03:28:00;99407.66;;;8.64;100.00
57668;BME280;43499;52.366;12.912;2023-04-01T03:29:02;99410.91;;;8.60;100.00
57668;BME280;43499;52.366;12.912;2023-04-01T03:30:05;99396.09;;;8.60;100.00
57668;BME280;43499;52.366;12.912;2023-04-01T03:31:11;99403.13;;;8.61;100.00
57668;BME280;43499;52.366;12.912;2023-04-01T03:32:18;99394.38;;;8.61;100.00
57668;BME280;43499;52.366;12.912;2023-04-01T03:33:19;99405.75;;;8.61;100.00
57668;BME280;43499;52.366;12.912;2023-04-01T03:34:20;99405.97;;;8.64;100.00
57668;BME280;43499;52.366;12.912;2023-04-01T03:35:21;99403.22;;;8.63;100.00
57668;BME280;43499;52.366;12.912;2023-04-01T03:36:22;99397.59;;;8.57;100.00
57668;BME280;43499;52.366;12.912;2023-04-01T03:37:23;99402.25;;;8.61;100.00
57668;BME280;43499;52.366;12.912;2023-04-01T03:38:25;99395.38;;;8.63;100.00
57668;BME280;43499;52.366;12.912;2023-04-01T03:39:26;99406.88;;;8.65;100.00
57668;BME280;43499;52.366;12.912;2023-04-01T03:40:27;99402.44;;;8.64;100.00
57668;BME280;43499;52.366;12.912;2023-04-01T03:41:28;99402.44;;;8.64;100.00
57668;BME280;43499;52.366;12.912;2023-04-01T03:42:30;99399.94;;;8.66;100.00
57668;BME280;43499;52.366;12.912;2023-04-01T03:43:32;99409.69;;;8.68;100.00
57668;BME280;43499;52.366;12.912;2023-04-01T03:44:33;99412.31;;;8.68;100.00
57668;BME280;43499;52.366;12.912;2023-04-01T03:45:35;99409.59;;;8.67;100.00
57668;BME280;43499;52.366;12.912;2023-04-01T03:46:37;99412.31;;;8.68;100.00
57668;BME280;43499;52.366;12.912;2023-04-01T03:47:39;99413.91;;;8.66;100.00
57668;BME280;43499;52.366;12.912;2023-04-01T03:48:40;99423.81;;;8.70;100.00
57668;BME280;43499;52.366;12.912;2023-04-01T03:49:41;99412.09;;;8.65;100.00
57668;BME280;43499;52.366;12.912;2023-04-01T03:50:43;99408.81;;;8.68;100.00
57668;BME280;43499;52.366;12.912;2023-04-01T03:51:45;99425.00;;;8.75;100.00
57668;BME280;43499;52.366;12.912;2023-04-01T03:52:46;99423.41;;;8.77;100.00
57668;BME280;43499;52.366;12.912;2023-04-01T03:53:47;99422.53;;;8.77;100.00
57668;BME280;43499;52.366;12.912;2023-04-01T03:54:48;99422.41;;;8.75;100.00
57668;BME280;43499;52.366;12.912;2023-04-01T03:55:50;99417.66;;;8.70;100.00
57668;BME280;43499;52.366;12.912;2023-04-01T03:56:52;99414.03;;;8.68;100.00
57668;BME280;43499;52.366;12.912;2023-04-01T03:57:53;99420.50;;;8.73;100.00
57668;BME280;43499;52.366;12.912;2023-04-01T03:58:54;99412.09;;;8.65;100.00
57668;BME280;43499;52.366;12.912;2023-04-01T03:59:55;99420.50;;;8.73;100.00
57668;BME280;43499;52.366;12.912;2023-04-01T04:00:56;99420.97;;;8.67;100.00
57668;BME280;43499;52.366;12.912;2023-04-01T04:01:57;99418.38;;;8.67;100.00
57668;BME280;43499;52.366;12.912;2023-04-01T04:02:58;99423.91;;;8.72;100.00
57668;BME280;43499;52.366;12.912;2023-04-01T04:04:05;99412.50;;;8.58;100.00
57668;BME280;43499;52.366;12.912;2023-04-01T04:05:06;99424.31;;;8.64;100.00
57668;BME280;43499;52.366;12.912;2023-04-01T04:06:11;99432.97;;;8.63;100.00
57668;BME280;43499;52.366;12.912;2023-04-01T04:07:12;99431.56;;;8.69;100.00
57668;BME280;43499;52.366;12.912;2023-04-01T04:08:33;99429.63;;;8.66;100.00
57668;BME280;43499;52.366;12.912;2023-04-01T04:09:34;99432.38;;;8.68;100.00
57668;BME280;43499;52.366;12.912;2023-04-01T04:10:35;99415.22;;;8.59;100.00
57668;BME280;43499;52.366;12.912;2023-04-01T04:11:37;99420.38;;;8.58;100.00
57668;BME280;43499;52.366;12.912;2023-04-01T04:12:38;99420.47;;;8.59;100.00
57668;BME280;43499;52.366;12.912;2023-04-01T04:13:39;99435.50;;;8.62;100.00
57668;BME280;43499;52.366;12.912;2023-04-01T04:14:40;99438.91;;;8.61;100.00
57668;BME280;43499;52.366;12.912;2023-04-01T04:15:41;99422.19;;;8.47;100.00
57668;BME280;43499;52.366;12.912;2023-04-01T04:16:42;99428.00;;;8.55;100.00
57668;BME280;43499;52.366;12.912;2023-04-01T04:17:45;99437.09;;;8.60;100.00
57668;BME280;43499;52.366;12.912;2023-04-01T04:18:46;99430.63;;;8.55;100.00
57668;BME280;43499;52.366;12.912;2023-04-01T04:19:47;99424.19;;;8.49;100.00
57668;BME280;43499;52.366;12.912;2023-04-01T04:20:49;99427.44;;;8.47;100.00
57668;BME280;43499;52.366;12.912;2023-04-01T04:21:51;99437.59;;;8.54;100.00
57668;BME280;43499;52.366;12.912;2023-04-01T04:22:52;99427.44;;;8.47;100.00
57668;BME280;43499;52.366;12.912;2023-04-01T04:23:54;99429.50;;;8.51;100.00
57668;BME280;43499;52.366;12.912;2023-04-01T04:24:55;99429.50;;;8.51;100.00
57668;BME280;43499;52.366;12.912;2023-04-01T04:26:02;99442.22;;;8.58;100.00
57668;BME280;43499;52.366;12.912;2023-04-01T04:27:04;99425.16;;;8.52;100.00
57668;BME280;43499;52.366;12.912;2023-04-01T04:28:05;99419.75;;;8.48;100.00
57668;BME280;43499;52.366;12.912;2023-04-01T04:29:06;99443.84;;;8.56;100.00
57668;BME280;43499;52.366;12.912;2023-04-01T04:30:08;99444.03;;;8.59;100.00
57668;BME280;43499;52.366;12.912;2023-04-01T04:31:10;99428.50;;;8.49;100.00
57668;BME280;43499;52.366;12.912;2023-04-01T04:32:15;99434.97;;;8.54;100.00
57668;BME280;43499;52.366;12.912;2023-04-01T04:33:16;99427.13;;;8.54;100.00
57668;BME280;43499;52.366;12.912;2023-04-01T04:34:17;99440.81;;;8.63;100.00
57668;BME280;43499;52.366;12.912;2023-04-01T04:35:19;99440.81;;;8.63;100.00
57668;BME280;43499;52.366;12.912;2023-04-01T04:36:21;99438.28;;;8.65;100.00
57668;BME280;43499;52.366;12.912;2023-04-01T04:37:24;99433.56;;;8.59;100.00
57668;BME280;43499;52.366;12.912;2023-04-01T04:38:26;99441.94;;;8.67;100.00
57668;BME280;43499;52.366;12.912;2023-04-01T04:39:28;99432.88;;;8.62;100.00
57668;BME280;43499;52.366;12.912;2023-04-01T04:40:30;99448.19;;;8.69;100.00
57668;BME280;43499;52.366;12.912;2023-04-01T04:41:31;99434.56;;;8.61;100.00
57668;BME280;43499;52.366;12.912;2023-04-01T04:42:32;99423.56;;;8.54;100.00
57668;BME280;43499;52.366;12.912;2023-04-01T04:43:40;99424.81;;;8.59;100.00
57668;BME280;43499;52.366;12.912;2023-04-01T04:44:41;99449.09;;;8.70;100.00
57668;BME280;43499;52.366;12.912;2023-04-01T04:45:42;99427.19;;;8.56;100.00
57668;BME280;43499;52.366;12.912;2023-04-01T04:46:44;99434.25;;;8.57;100.00
57668;BME280;43499;52.366;12.912;2023-04-01T04:47:48;99441.22;;;8.56;100.00
57668;BME280;43499;52.366;12.912;2023-04-01T04:48:49;99450.28;;;8.61;100.00
57668;BME280;43499;52.366;12.912;2023-04-01T04:49:50;99447.34;;;8.57;100.00
57668;BME280;43499;52.366;12.912;2023-04-01T04:50:52;99447.56;;;8.60;100.00
57668;BME280;43499;52.366;12.912;2023-04-01T04:51:56;99457.03;;;8.58;100.00
57668;BME280;43499;52.366;12.912;2023-04-01T04:53:01;99448.16;;;8.56;100.00
57668;BME280;43499;52.366;12.912;2023-04-01T04:54:03;99439.91;;;8.49;100.00
57668;BME280;43499;52.366;12.912;2023-04-01T04:55:19;99444.75;;;8.57;100.00
57668;BME280;43499;52.366;12.912;2023-04-01T04:56:25;99442.22;;;8.58;100.00
57668;BME280;43499;52.366;12.912;2023-04-01T04:57:34;99453.84;;;8.62;100.00
57668;BME280;43499;52.366;12.912;2023-04-01T04:58:36;99451.00;;;8.59;100.00
57668;BME280;43499;52.366;12.912;2023-04-01T04:59:37;99438.59;;;8.56;100.00
57668;BME280;43499;52.366;12.912;2023-04-01T05:00:46;99454.00;;;8.65;100.00
57668;BME280;43499;52.366;12.912;2023-04-01T05:01:54;99431.63;;;8.57;100.00
57668;BME280;43499;52.366;12.912;2023-04-01T05:02:55;99452.50;;;8.69;100.00
57668;BME280;43499;52.366;12.912;2023-04-01T05:03:56;99450.22;;;8.73;100.00
57668;BME280;43499;52.366;12.912;2023-04-01T05:04:57;99454.63;;;8.74;100.00
57668;BME280;43499;52.366;12.912;2023-04-01T05:05:59;99441.13;;;8.68;100.00
57668;BME280;43499;52.366;12.912;2023-04-01T05:07:00;99441.13;;;8.68;100.00
57668;BME280;43499;52.366;12.912;2023-04-01T05:08:01;99457.47;;;8.77;100.00
57668;BME280;43499;52.366;12.912;2023-04-01T05:09:02;99454.13;;;8.67;100.00
57668;BME280;43499;52.366;12.912;2023-04-01T05:10:04;99452.84;;;8.73;100.00
57668;BME280;43499;52.366;12.912;2023-04-01T05:11:13;99442.56;;;8.76;100.00
57668;BME280;43499;52.366;12.912;2023-04-01T05:12:17;99447.22;;;8.80;100.00
57668;BME280;43499;52.366;12.912;2023-04-01T05:13:44;99456.38;;;8.87;100.00
57668;BME280;43499;52.366;12.912;2023-04-01T05:14:46;99456.31;;;8.86;100.00
57668;BME280;43499;52.366;12.912;2023-04-01T05:15:47;99462.34;;;8.85;100.00
57668;BME280;43499;52.366;12.912;2023-04-01T05:16:48;99454.06;;;8.78;100.00
57668;BME280;43499;52.366;12.912;2023-04-01T05:17:51;99463.22;;;8.85;100.00
57668;BME280;43499;52.366;12.912;2023-04-01T05:18:52;99470.38;;;8.88;100.00
57668;BME280;43499;52.366;12.912;2023-04-01T05:19:53;99454.88;;;8.91;100.00
57668;BME280;43499;52.366;12.912;2023-04-01T05:20:55;99465.78;;;8.97;100.00
57668;BME280;43499;52.366;12.912;2023-04-01T05:21:56;99464.56;;;8.92;100.00
57668;BME280;43499;52.366;12.912;2023-04-01T05:22:58;99464.88;;;8.97;100.00
57668;BME280;43499;52.366;12.912;2023-04-01T05:24:00;99465.78;;;8.97;100.00
57668;BME280;43499;52.366;12.912;2023-04-01T05:25:01;99462.34;;;8.98;100.00
57668;BME280;43499;52.366;12.912;2023-04-01T05:26:07;99474.03;;;9.03;100.00
57668;BME280;43499;52.366;12.912;2023-04-01T05:27:08;99470.91;;;8.95;100.00
57668;BME280;43499;52.366;12.912;2023-04-01T05:28:14;99463.97;;;8.96;100.00
57668;BME280;43499;52.366;12.912;2023-04-01T05:29:16;99472.81;;;8.98;100.00
57668;BME280;43499;52.366;12.912;2023-04-01T05:30:19;99467.06;;;9.04;100.00
57668;BME280;43499;52.366;12.912;2023-04-01T05:31:35;99467.06;;;9.04;100.00
57668;BME280;43499;52.366;12.912;2023-04-01T05:32:38;99466.59;;;8.96;100.00
57668;BME280;43499;52.366;12.912;2023-04-01T05:33:39;99477.38;;;9.01;100.00
57668;BME280;43499;52.366;12.912;2023-04-01T05:34:40;99467.19;;;9.05;100.00
57668;BME280;43499;52.366;12.912;2023-04-01T05:35:43;99476.47;;;9.14;100.00
57668;BME280;43499;52.366;12.912;2023-04-01T05:36:44;99477.50;;;9.16;100.00
57668;BME280;43499;52.366;12.912;2023-04-01T05:37:45;99474.16;;;9.18;100.00
57668;BME280;43499;52.366;12.912;2023-04-01T05:38:46;99469.94;;;9.20;100.00
57668;BME280;43499;52.366;12.912;2023-04-01T05:39:48;99472.84;;;9.25;100.00
57668;BME280;43499;52.366;12.912;2023-04-01T05:40:49;99482.84;;;9.31;100.00
57668;BME280;43499;52.366;12.912;2023-04-01T05:41:50;99479.19;;;9.29;100.00
57668;BME280;43499;52.366;12.912;2023-04-01T05:42:51;99466.00;;;9.27;100.00
57668;BME280;43499;52.366;12.912;2023-04-01T05:43:53;99483.56;;;9.41;100.00